createdAt,value
2023-11-03T00:00:07.721Z,90.86
2023-11-03T00:02:36.210Z,91.65
2023-11-03T00:05:09.875Z,91.78
2023-11-03T00:07:38.762Z,90.60
2023-11-03T00:10:11.051Z,92.17
2023-11-03T00:12:40.397Z,91.48
2023-11-03T00:15:11.323Z,92.29
2023-11-03T00:17:39.964Z,92.76
2023-11-03T00:20:09.236Z,93.21
2023-11-03T00:22:37.307Z,92.69
2023-11-03T00:25:12.451Z,92.78
2023-11-03T00:27:40.490Z,92.88
2023-11-03T00:30:10.941Z,92.79
2023-11-03T00:32:39.239Z,93.19
2023-11-03T00:35:09.847Z,92.87
2023-11-03T00:37:38.118Z,93.07
2023-11-03T00:40:09.132Z,93.29
2023-11-03T00:42:37.245Z,93.68
2023-11-03T00:45:06.686Z,92.90
2023-11-03T00:47:36.137Z,93.38
2023-11-03T00:50:04.477Z,93.10
2023-11-03T00:52:32.517Z,93.85
2023-11-03T00:55:00.876Z,93.76
2023-11-03T00:57:30.230Z,94.75
2023-11-03T00:59:58.373Z,94.13
2023-11-03T01:02:27.635Z,94.70
2023-11-03T01:04:57.385Z,94.40
2023-11-03T01:07:25.524Z,95.20
2023-11-03T01:09:53.938Z,94.74
2023-11-03T01:12:31.185Z,94.71
2023-11-03T01:14:59.916Z,91.61
2023-11-03T01:17:28.602Z,92.25
2023-11-03T01:19:58.103Z,92.67
2023-11-03T01:22:26.118Z,93.68
2023-11-03T01:24:54.243Z,93.58
2023-11-03T01:27:22.372Z,93.88
2023-11-03T01:29:53.396Z,94.49
2023-11-03T01:32:21.592Z,94.71
2023-11-03T01:34:49.683Z,95.13
2023-11-03T01:37:19.114Z,94.91
2023-11-03T01:39:47.147Z,93.97
2023-11-03T01:42:15.252Z,94.58
2023-11-03T01:44:46.261Z,95.09
2023-11-03T01:47:14.885Z,94.84
2023-11-03T01:49:43.058Z,95.25
2023-11-03T01:52:11.772Z,94.93
2023-11-03T01:54:41.321Z,95.00
2023-11-03T01:57:10.476Z,94.99
2023-11-03T01:59:38.868Z,94.89
2023-11-03T02:02:08.385Z,95.58
2023-11-03T02:04:36.410Z,95.15
2023-11-03T02:07:04.626Z,95.44
2023-11-03T02:09:33.583Z,93.74
2023-11-03T02:12:03.009Z,94.68
2023-11-03T02:14:31.076Z,94.50
2023-11-03T02:16:59.168Z,93.81
2023-11-03T02:19:27.558Z,95.45
2023-11-03T02:21:55.657Z,95.61
2023-11-03T02:24:25.207Z,95.45
2023-11-03T02:26:53.315Z,95.69
2023-11-03T02:29:21.693Z,95.33
2023-11-03T02:31:49.728Z,95.93
2023-11-03T02:34:17.892Z,95.50
2023-11-03T02:36:46.003Z,96.23
2023-11-03T02:39:15.684Z,96.67
2023-11-03T02:41:45.095Z,96.36
2023-11-03T02:44:13.479Z,96.86
2023-11-03T02:46:45.086Z,96.13
2023-11-03T02:49:13.319Z,96.68
2023-11-03T02:51:41.504Z,97.60
2023-11-03T02:54:09.633Z,97.42
2023-11-03T02:56:37.701Z,97.63
2023-11-03T02:59:07.298Z,98.35
2023-11-03T03:01:38.350Z,97.87
2023-11-03T03:04:07.277Z,97.95
2023-11-03T03:06:36.465Z,97.73
2023-11-03T03:09:04.618Z,98.37
2023-11-03T03:11:32.647Z,98.31
2023-11-03T03:14:00.727Z,99.30
2023-11-03T03:16:30.166Z,99.18
2023-11-03T03:18:58.239Z,99.42
2023-11-03T03:21:26.305Z,98.45
2023-11-03T03:23:54.365Z,98.95
2023-11-03T03:26:22.720Z,98.48
2023-11-03T03:28:50.863Z,98.05
2023-11-03T03:31:20.461Z,98.51
2023-11-03T03:33:51.262Z,98.82
2023-11-03T03:36:19.904Z,98.17
2023-11-03T03:38:48.165Z,97.95
2023-11-03T03:41:17.757Z,98.57
2023-11-03T03:43:46.515Z,97.69
2023-11-03T03:46:14.615Z,97.83
2023-11-03T03:48:42.737Z,97.91
2023-11-03T03:51:12.169Z,98.43
2023-11-03T03:53:40.196Z,98.38
2023-11-03T03:56:08.792Z,98.46
2023-11-03T03:58:39.801Z,98.57
2023-11-03T04:01:09.146Z,98.19
2023-11-03T04:03:38.112Z,98.61
2023-11-03T04:06:06.421Z,98.79
2023-11-03T04:08:36.741Z,98.27
2023-11-03T04:11:05.169Z,98.51
2023-11-03T04:13:33.308Z,99.32
2023-11-03T04:16:01.388Z,99.63
2023-11-03T04:18:29.448Z,99.69
2023-11-03T04:20:57.538Z,99.41
2023-11-03T04:23:25.829Z,99.23
2023-11-03T04:25:55.280Z,99.57
2023-11-03T04:28:23.384Z,99.55
2023-11-03T04:30:51.688Z,99.41
2023-11-03T04:33:19.733Z,99.94
2023-11-03T04:35:47.838Z,100.00
2023-11-03T04:38:15.857Z,100.00
2023-11-03T04:40:43.889Z,100.00
2023-11-03T04:43:13.393Z,100.00
2023-11-03T04:45:41.459Z,100.00
2023-11-03T04:48:09.593Z,100.00
2023-11-03T04:50:37.588Z,100.00
2023-11-03T04:53:05.751Z,100.00
2023-11-03T04:55:34.014Z,100.00
2023-11-03T04:58:02.507Z,100.00
2023-11-03T05:00:32.862Z,100.00
2023-11-03T05:03:01.750Z,100.00
2023-11-03T05:05:33.710Z,100.00
2023-11-03T05:08:01.880Z,100.00
2023-11-03T05:10:31.359Z,100.00
2023-11-03T05:12:59.468Z,99.64
2023-11-03T05:15:27.612Z,100.00
2023-11-03T05:17:57.102Z,100.00
2023-11-03T05:20:25.185Z,99.70
2023-11-03T05:22:53.386Z,99.93
2023-11-03T05:25:22.036Z,99.44
2023-11-03T05:27:50.395Z,98.59
2023-11-03T05:30:18.679Z,98.59
2023-11-03T05:32:46.766Z,98.86
2023-11-03T05:35:16.417Z,98.59
2023-11-03T05:37:44.564Z,98.42
2023-11-03T05:40:13.846Z,98.53
2023-11-03T05:42:42.238Z,97.85
2023-11-03T05:45:11.087Z,97.73
2023-11-03T05:47:39.594Z,97.56
2023-11-03T05:50:09.153Z,97.02
2023-11-03T05:52:38.609Z,96.81
2023-11-03T05:55:07.625Z,97.63
2023-11-03T05:57:35.641Z,97.03
2023-11-03T06:00:09.749Z,96.34
2023-11-03T06:02:38.825Z,96.70
2023-11-03T06:05:08.179Z,97.78
2023-11-03T06:07:36.607Z,100.00
2023-11-03T06:10:06.923Z,100.00
2023-11-03T06:12:35.009Z,100.00
2023-11-03T06:15:03.013Z,100.00
2023-11-03T06:17:31.053Z,100.00
2023-11-03T06:19:59.138Z,100.00
2023-11-03T06:22:27.191Z,100.00
2023-11-03T06:24:55.227Z,100.00
2023-11-03T06:27:24.649Z,100.00
2023-11-03T06:29:52.655Z,100.00
2023-11-03T06:32:20.731Z,100.00
2023-11-03T06:34:48.877Z,100.00
2023-11-03T06:37:16.977Z,100.00
2023-11-03T06:39:45.130Z,100.00
2023-11-03T06:42:13.140Z,100.00
2023-11-03T06:44:42.558Z,100.00
2023-11-03T06:47:10.510Z,100.00
2023-11-03T06:49:38.630Z,100.00
2023-11-03T06:52:07.576Z,100.00
2023-11-03T06:54:35.727Z,100.00
2023-11-03T06:57:03.780Z,100.00
2023-11-03T06:59:31.829Z,100.00
2023-11-03T07:02:01.231Z,100.00
2023-11-03T07:04:29.497Z,100.00
2023-11-03T07:06:57.538Z,100.00
2023-11-03T07:09:25.638Z,100.00
2023-11-03T07:11:54.503Z,100.00
2023-11-03T07:14:22.603Z,100.00
2023-11-03T07:16:54.389Z,100.00
2023-11-03T07:19:24.706Z,100.00
2023-11-03T07:21:53.883Z,100.00
2023-11-03T07:24:23.124Z,100.00
2023-11-03T07:26:51.759Z,100.00
2023-11-03T07:29:19.989Z,100.00
2023-11-03T07:31:48.904Z,100.00
2023-11-03T07:34:17.262Z,100.00
2023-11-03T07:36:46.818Z,100.00
2023-11-03T07:39:15.843Z,100.00
2023-11-03T07:41:44.694Z,100.00
2023-11-03T07:44:13.876Z,100.00
2023-11-03T07:46:42.007Z,100.00
2023-11-03T07:49:10.106Z,100.00
2023-11-03T07:51:38.230Z,100.00
2023-11-03T07:54:08.788Z,100.00
2023-11-03T07:56:37.485Z,100.00
2023-11-03T07:59:06.184Z,100.00
2023-11-03T08:01:34.259Z,100.00
2023-11-03T08:04:02.700Z,100.00
2023-11-03T08:06:30.915Z,100.00
2023-11-03T08:08:58.989Z,100.00
2023-11-03T08:11:28.943Z,100.00
2023-11-03T08:13:57.068Z,100.00
2023-11-03T08:16:25.186Z,100.00
2023-11-03T08:19:00.113Z,100.00
2023-11-03T08:21:28.280Z,100.00
2023-11-03T08:24:01.050Z,100.00
2023-11-03T08:26:31.810Z,100.00
2023-11-03T08:29:04.991Z,100.00
2023-11-03T08:31:36.656Z,99.71
2023-11-03T08:34:11.397Z,99.01
2023-11-03T08:36:45.965Z,99.22
2023-11-03T08:39:24.137Z,99.55
2023-11-03T08:42:01.088Z,98.70
2023-11-03T08:44:29.218Z,97.70
2023-11-03T08:46:57.634Z,96.77
2023-11-03T08:49:26.268Z,95.92
2023-11-03T08:51:55.531Z,96.53
2023-11-03T08:54:23.748Z,96.07
2023-11-03T08:56:51.903Z,96.34
2023-11-03T08:59:21.503Z,96.39
2023-11-03T09:01:55.169Z,96.74
2023-11-03T09:04:23.318Z,96.19
2023-11-03T09:06:52.555Z,96.54
2023-11-03T09:09:20.612Z,95.96
2023-11-03T09:11:48.682Z,96.53
2023-11-03T09:14:17.248Z,96.02
2023-11-03T09:16:46.771Z,96.48
2023-11-03T09:19:14.938Z,94.65
2023-11-03T09:21:42.999Z,95.68
2023-11-03T09:24:11.967Z,94.72
2023-11-03T09:26:40.075Z,94.35
2023-11-03T09:29:08.257Z,95.51
2023-11-03T09:31:36.280Z,94.94
2023-11-03T09:34:06.695Z,95.01
2023-11-03T09:36:34.826Z,94.44
2023-11-03T09:39:05.913Z,94.37
2023-11-03T09:41:40.729Z,94.79
2023-11-03T09:44:09.553Z,92.64
2023-11-03T09:46:39.332Z,92.61
2023-11-03T09:49:09.067Z,93.03
2023-11-03T09:51:40.886Z,92.80
2023-11-03T09:54:09.022Z,92.54
2023-11-03T09:56:38.879Z,93.92
2023-11-03T09:59:08.619Z,93.21
2023-11-03T10:01:38.779Z,92.06
2023-11-03T10:04:10.052Z,92.64
2023-11-03T10:06:39.225Z,91.77
2023-11-03T10:09:08.274Z,91.11
2023-11-03T10:11:37.554Z,92.14
2023-11-03T10:14:07.289Z,91.61
2023-11-03T10:16:35.311Z,92.66
2023-11-03T10:19:05.026Z,91.87
2023-11-03T10:21:36.801Z,91.60
2023-11-03T10:24:05.100Z,90.01
2023-11-03T10:26:33.562Z,89.77
2023-11-03T10:29:05.697Z,89.11
2023-11-03T10:31:34.253Z,89.77
2023-11-03T10:34:02.918Z,90.39
2023-11-03T10:36:32.441Z,90.97
2023-11-03T10:39:02.280Z,90.10
2023-11-03T10:41:30.741Z,90.65
2023-11-03T10:44:00.135Z,90.79
2023-11-03T10:46:37.296Z,90.47
2023-11-03T10:49:13.879Z,90.38
2023-11-03T10:51:50.473Z,89.64
2023-11-03T10:54:33.236Z,89.32
2023-11-03T10:59:35.264Z,87.75
2023-11-03T11:02:08.592Z,87.82
2023-11-03T11:04:44.825Z,88.12
2023-11-03T11:07:19.248Z,85.08
2023-11-03T11:09:50.181Z,85.95
2023-11-03T11:12:18.339Z,84.96
2023-11-03T11:14:47.370Z,85.96
2023-11-03T11:17:19.375Z,85.11
2023-11-03T11:19:48.938Z,84.87
2023-11-03T11:22:20.865Z,84.47
2023-11-03T11:24:53.496Z,85.54
2023-11-03T11:27:23.342Z,86.22
2023-11-03T11:29:52.652Z,83.99
2023-11-03T11:32:31.105Z,84.88
2023-11-03T11:35:00.035Z,83.88
2023-11-03T11:37:30.215Z,85.99
2023-11-03T11:40:01.377Z,85.20
2023-11-03T11:42:31.276Z,84.01
2023-11-03T11:45:00.842Z,82.80
2023-11-03T11:47:30.617Z,82.58
2023-11-03T11:49:59.269Z,82.78
2023-11-03T11:52:30.467Z,81.24
2023-11-03T11:55:03.010Z,81.14
2023-11-03T11:57:38.344Z,81.81
2023-11-03T12:00:08.977Z,80.54
2023-11-03T12:02:37.095Z,80.90
2023-11-03T12:05:05.545Z,81.80
2023-11-03T12:07:35.702Z,81.11
2023-11-03T12:10:05.804Z,80.89
2023-11-03T12:12:33.896Z,80.88
2023-11-03T12:15:04.133Z,80.76
2023-11-03T12:17:32.274Z,81.23
2023-11-03T12:20:00.307Z,80.31
2023-11-03T12:22:29.835Z,80.18
2023-11-03T12:24:58.316Z,79.42
2023-11-03T12:27:31.164Z,78.10
2023-11-03T12:30:04.835Z,79.41
2023-11-03T12:32:37.245Z,79.67
2023-11-03T12:35:11.204Z,79.93
2023-11-03T12:37:45.673Z,80.46
2023-11-03T12:40:23.521Z,78.59
2023-11-03T12:42:57.649Z,79.16
2023-11-03T12:45:27.112Z,80.73
2023-11-03T12:47:58.336Z,78.01
2023-11-03T12:50:32.161Z,77.08
2023-11-03T12:53:05.063Z,79.07
2023-11-03T12:55:35.980Z,76.36
2023-11-03T12:58:12.542Z,78.40
2023-11-03T13:00:41.405Z,78.03
2023-11-03T13:03:09.642Z,77.77
2023-11-03T13:05:37.923Z,76.88
2023-11-03T13:08:06.624Z,78.31
2023-11-03T13:10:36.129Z,76.95
2023-11-03T13:13:06.880Z,78.21
2023-11-03T13:15:36.046Z,77.00
2023-11-03T13:18:04.794Z,76.79
2023-11-03T13:20:32.880Z,76.66
2023-11-03T13:23:03.134Z,76.29
2023-11-03T13:25:31.480Z,76.96
2023-11-03T13:28:00.527Z,77.65
2023-11-03T13:30:30.481Z,76.38
2023-11-03T13:32:58.539Z,75.15
2023-11-03T13:35:27.560Z,76.30
2023-11-03T13:37:55.836Z,75.09
2023-11-03T13:40:25.248Z,71.35
2023-11-03T13:42:56.095Z,69.74
2023-11-03T13:45:24.206Z,70.38
2023-11-03T13:47:53.755Z,71.02
2023-11-03T13:50:24.569Z,71.58
2023-11-03T13:52:53.246Z,70.46
2023-11-03T13:55:23.135Z,71.27
2023-11-03T13:57:53.096Z,72.14
2023-11-03T14:00:22.682Z,71.65
2023-11-03T14:02:51.904Z,72.26
2023-11-03T14:05:22.450Z,72.25
2023-11-03T14:07:53.230Z,73.88
2023-11-03T14:10:25.272Z,71.88
2023-11-03T14:12:54.469Z,69.45
2023-11-03T14:15:28.437Z,69.40
2023-11-03T14:17:58.135Z,71.70
2023-11-03T14:20:34.610Z,70.95
2023-11-03T14:23:05.194Z,71.40
2023-11-03T14:25:33.796Z,70.53
2023-11-03T14:28:04.204Z,70.87
2023-11-03T14:30:35.402Z,70.83
2023-11-03T14:33:07.991Z,70.28
2023-11-03T14:35:39.894Z,70.54
2023-11-03T14:38:13.151Z,71.44
2023-11-03T14:40:44.331Z,71.84
2023-11-03T14:43:17.642Z,72.36
2023-11-03T14:45:48.172Z,70.61
2023-11-03T14:48:21.896Z,71.32
2023-11-03T14:50:56.926Z,71.62
2023-11-03T14:53:27.640Z,72.21
2023-11-03T14:55:56.845Z,71.07
2023-11-03T14:58:26.381Z,72.46
2023-11-03T15:00:56.582Z,72.95
2023-11-03T15:03:27.251Z,72.31
2023-11-03T15:06:04.182Z,66.67
2023-11-03T15:08:34.488Z,69.15
2023-11-03T15:11:06.679Z,66.31
2023-11-03T15:13:36.700Z,64.73
2023-11-03T15:16:10.989Z,62.02
2023-11-03T15:18:40.235Z,60.11
2023-11-03T15:21:14.119Z,63.11
2023-11-03T15:23:42.451Z,61.42
2023-11-03T15:26:10.868Z,62.45
2023-11-03T15:28:39.236Z,62.61
2023-11-03T15:31:11.035Z,63.24
2023-11-03T15:33:40.630Z,62.90
2023-11-03T15:36:13.483Z,65.58
2023-11-03T15:38:41.662Z,64.31
2023-11-03T15:41:09.666Z,65.40
2023-11-03T15:43:39.884Z,66.39
2023-11-03T15:46:33.740Z,65.81
2023-11-03T15:49:03.304Z,63.84
2023-11-03T15:51:32.767Z,65.26
2023-11-03T15:54:01.381Z,65.11
2023-11-03T15:56:29.437Z,65.52
2023-11-03T15:58:57.472Z,66.92
2023-11-03T16:01:25.528Z,66.36
2023-11-03T16:03:53.607Z,65.86
2023-11-03T16:06:21.719Z,66.97
2023-11-03T16:08:51.211Z,67.80
2023-11-03T16:11:19.225Z,68.45
2023-11-03T16:13:47.426Z,68.23
2023-11-03T16:16:15.534Z,68.37
2023-11-03T16:18:43.712Z,68.52
2023-11-03T16:21:11.811Z,68.65
2023-11-03T16:23:39.852Z,68.89
2023-11-03T16:26:10.232Z,68.97
2023-11-03T16:28:38.473Z,68.72
2023-11-03T16:31:09.179Z,69.66
2023-11-03T16:33:37.450Z,70.35
2023-11-03T16:36:06.429Z,70.22
2023-11-03T16:38:34.618Z,69.87
2023-11-03T16:41:02.651Z,70.75
2023-11-03T16:43:32.137Z,71.81
2023-11-03T16:46:00.259Z,72.93
2023-11-03T16:48:32.343Z,74.14
2023-11-03T16:51:01.402Z,74.08
2023-11-03T16:53:32.950Z,75.42
2023-11-03T16:56:04.257Z,74.76
2023-11-03T16:58:36.290Z,74.42
2023-11-03T17:01:05.863Z,74.83
2023-11-03T17:03:34.095Z,75.02
2023-11-03T17:06:03.716Z,75.23
2023-11-03T17:08:33.812Z,75.42
2023-11-03T17:11:02.341Z,77.03
2023-11-03T17:13:30.679Z,77.19
2023-11-03T17:16:00.363Z,77.38
2023-11-03T17:18:28.512Z,78.58
2023-11-03T17:20:56.610Z,79.44
2023-11-03T17:23:24.800Z,80.96
2023-11-03T17:25:52.895Z,82.08
2023-11-03T17:28:23.837Z,82.41
2023-11-03T17:30:52.141Z,82.44
2023-11-03T17:33:21.878Z,83.80
2023-11-03T17:35:49.981Z,83.28
2023-11-03T17:38:18.439Z,83.54
2023-11-03T17:40:46.530Z,84.86
2023-11-03T17:43:17.163Z,85.15
2023-11-03T17:45:46.187Z,85.90
2023-11-03T17:48:14.301Z,87.03
2023-11-03T17:50:46.388Z,87.11
2023-11-03T17:53:14.504Z,87.30
2023-11-03T17:55:42.918Z,87.96
2023-11-03T17:58:11.915Z,87.83
2023-11-03T18:00:40.020Z,87.56
2023-11-03T18:03:08.365Z,88.93
2023-11-03T18:05:37.710Z,88.82
2023-11-03T18:08:07.440Z,88.85
2023-11-03T18:10:35.618Z,89.06
2023-11-03T18:13:03.822Z,89.43
2023-11-03T18:15:31.893Z,89.58
2023-11-03T18:18:00.202Z,89.23
2023-11-03T18:20:28.805Z,89.14
2023-11-03T18:22:57.082Z,89.41
2023-11-03T18:25:27.827Z,89.90
2023-11-03T18:27:55.881Z,89.63
2023-11-03T18:30:26.825Z,88.17
2023-11-03T18:32:56.948Z,86.57
2023-11-03T18:35:26.728Z,86.67
2023-11-03T18:37:55.376Z,87.09
2023-11-03T18:40:28.692Z,87.32
2023-11-03T18:42:59.164Z,88.37
2023-11-03T18:45:28.186Z,88.25
2023-11-03T18:47:57.997Z,88.98
2023-11-03T18:53:00.346Z,90.45
2023-11-03T19:07:22.903Z,91.67
2023-11-03T19:08:25.404Z,92.09
2023-11-03T19:10:53.809Z,92.07
2023-11-03T19:13:23.296Z,92.46
2023-11-03T19:15:52.327Z,92.01
2023-11-03T19:20:49.989Z,91.97
2023-11-03T19:23:18.308Z,92.33
2023-11-03T19:25:47.887Z,92.62
2023-11-03T19:28:18.312Z,93.01
2023-11-03T19:30:48.564Z,93.86
2023-11-03T19:33:17.848Z,93.82
2023-11-03T19:35:50.046Z,94.60
2023-11-03T19:38:21.077Z,95.04
2023-11-03T19:40:50.167Z,94.76
2023-11-03T19:43:18.919Z,94.91
2023-11-03T19:45:49.199Z,93.42
2023-11-03T19:48:17.726Z,92.05
2023-11-03T19:50:47.376Z,90.08
2023-11-03T19:53:17.173Z,88.68
2023-11-03T19:55:49.160Z,88.02
2023-11-03T19:58:17.486Z,88.15
2023-11-03T20:00:49.136Z,87.87
2023-11-03T20:03:19.784Z,87.79
2023-11-03T20:05:47.970Z,87.62
2023-11-03T20:08:16.221Z,87.57
2023-11-03T20:10:46.568Z,87.17
2023-11-03T20:13:16.846Z,88.21
2023-11-03T20:15:45.099Z,88.00
2023-11-03T20:18:13.332Z,87.53
2023-11-03T20:20:42.816Z,87.27
2023-11-03T20:23:11.311Z,87.31
2023-11-03T20:25:39.392Z,86.71
2023-11-03T20:28:07.471Z,86.79
2023-11-03T20:30:35.464Z,87.24
2023-11-03T20:33:03.636Z,86.72
2023-11-03T20:35:31.756Z,86.07
2023-11-03T20:38:01.274Z,86.73
2023-11-03T20:40:29.951Z,86.83
2023-11-03T20:42:58.066Z,87.21
2023-11-03T20:45:27.169Z,87.24
2023-11-03T20:47:55.381Z,87.54
2023-11-03T20:50:24.598Z,87.23
2023-11-03T20:52:53.212Z,87.08
2023-11-03T20:55:23.114Z,87.25
2023-11-03T20:57:51.211Z,87.65
2023-11-03T21:00:20.371Z,87.49
2023-11-03T21:02:49.666Z,87.90
2023-11-03T21:05:21.417Z,87.76
2023-11-03T21:07:50.540Z,87.64
2023-11-03T21:10:18.942Z,87.65
2023-11-03T21:12:48.991Z,88.30
2023-11-03T21:15:18.489Z,87.05
2023-11-03T21:17:50.332Z,87.56
2023-11-03T21:20:22.065Z,86.86
2023-11-03T21:22:51.937Z,86.50
2023-11-03T21:25:20.002Z,86.41
2023-11-03T21:27:49.467Z,85.52
2023-11-03T21:30:17.971Z,84.83
2023-11-03T21:32:46.066Z,84.77
2023-11-03T21:35:14.424Z,85.40
2023-11-03T21:37:42.860Z,84.79
2023-11-03T21:40:16.578Z,84.09
2023-11-03T21:42:47.560Z,84.38
2023-11-03T21:45:18.128Z,84.24
2023-11-03T21:47:49.909Z,85.79
2023-11-03T21:50:18.692Z,85.41
2023-11-03T21:52:50.889Z,85.63
2023-11-03T21:55:19.950Z,85.88
2023-11-03T21:57:49.007Z,86.90
2023-11-03T22:00:21.350Z,87.11
2023-11-03T22:02:49.908Z,87.42
2023-11-03T22:05:18.235Z,88.85
2023-11-03T22:07:46.638Z,89.53
2023-11-03T22:10:14.713Z,91.03
2023-11-03T22:12:42.843Z,91.55
2023-11-03T22:15:11.750Z,91.69
2023-11-03T22:17:49.979Z,91.50
2023-11-03T22:20:24.173Z,89.87
2023-11-03T22:22:52.214Z,89.81
2023-11-03T22:25:21.584Z,89.01
2023-11-03T22:27:50.521Z,89.45
2023-11-03T22:30:18.783Z,88.09
2023-11-03T22:32:49.742Z,88.07
2023-11-03T22:35:19.333Z,87.96
2023-11-03T22:37:48.927Z,87.26
2023-11-03T22:40:17.826Z,87.49
2023-11-03T22:42:47.043Z,87.96
2023-11-03T22:45:15.373Z,87.36
2023-11-03T22:47:46.725Z,86.76
2023-11-03T22:50:18.644Z,86.51
2023-11-03T22:52:46.808Z,86.09
2023-11-03T22:55:15.069Z,86.60
2023-11-03T22:57:43.292Z,86.25
2023-11-03T23:00:14.164Z,86.03
2023-11-03T23:02:42.908Z,86.52
2023-11-03T23:05:11.070Z,86.70
2023-11-03T23:07:40.831Z,85.92
2023-11-03T23:10:13.376Z,85.34
2023-11-03T23:12:42.135Z,85.79
2023-11-03T23:15:11.614Z,84.99
2023-11-03T23:17:41.414Z,86.12
2023-11-03T23:20:13.521Z,85.38
2023-11-03T23:22:43.963Z,85.72
2023-11-03T23:25:14.400Z,84.98
2023-11-03T23:27:44.035Z,85.32
2023-11-03T23:30:14.167Z,85.33
2023-11-03T23:32:42.858Z,85.57
2023-11-03T23:35:11.555Z,85.84
2023-11-03T23:37:39.703Z,83.57
2023-11-03T23:40:10.452Z,84.54
2023-11-03T23:42:39.166Z,84.13
2023-11-03T23:45:07.775Z,84.22
2023-11-03T23:47:37.503Z,83.77
2023-11-03T23:50:08.595Z,84.72
2023-11-03T23:52:36.738Z,83.96
2023-11-03T23:55:06.625Z,83.59
2023-11-03T23:57:36.565Z,83.01
